sensor_id;sensor_type;location;lat;lon;timestamp;temperature;humidity
26687;DHT22;14298;50.900;4.648;2022-07-23T00:00:30;14.80;97.10
26687;DHT22;14298;50.900;4.648;2022-07-23T00:02:59;14.80;97.10
26687;DHT22;14298;50.900;4.648;2022-07-23T00:05:27;14.70;97.10
26687;DHT22;14298;50.900;4.648;2022-07-23T00:07:55;14.70;97.10
26687;DHT22;14298;50.900;4.648;2022-07-23T00:10:24;14.70;97.10
26687;DHT22;14298;50.900;4.648;2022-07-23T00:12:52;14.60;97.10
26687;DHT22;14298;50.900;4.648;2022-07-23T00:15:21;14.60;97.10
26687;DHT22;14298;50.900;4.648;2022-07-23T00:17:49;14.60;97.10
26687;DHT22;14298;50.900;4.648;2022-07-23T00:20:18;14.60;97.10
26687;DHT22;14298;50.900;4.648;2022-07-23T00:22:51;14.50;97.10
26687;DHT22;14298;50.900;4.648;2022-07-23T00:25:21;14.60;97.10
26687;DHT22;14298;50.900;4.648;2022-07-23T00:27:49;14.60;97.10
26687;DHT22;14298;50.900;4.648;2022-07-23T00:30:18;14.50;97.10
26687;DHT22;14298;50.900;4.648;2022-07-23T00:32:54;14.50;97.10
26687;DHT22;14298;50.900;4.648;2022-07-23T00:35:27;14.40;97.10
26687;DHT22;14298;50.900;4.648;2022-07-23T00:37:55;14.40;97.10
26687;DHT22;14298;50.900;4.648;2022-07-23T00:40:24;14.40;97.10
26687;DHT22;14298;50.900;4.648;2022-07-23T00:42:53;14.40;97.10
26687;DHT22;14298;50.900;4.648;2022-07-23T00:45:22;14.30;97.10
26687;DHT22;14298;50.900;4.648;2022-07-23T00:47:50;14.30;97.10
26687;DHT22;14298;50.900;4.648;2022-07-23T00:50:18;14.30;97.10
26687;DHT22;14298;50.900;4.648;2022-07-23T00:52:47;14.30;97.10
26687;DHT22;14298;50.900;4.648;2022-07-23T00:55:16;14.20;97.10
26687;DHT22;14298;50.900;4.648;2022-07-23T00:57:44;14.20;97.10
26687;DHT22;14298;50.900;4.648;2022-07-23T01:00:17;14.20;97.10
26687;DHT22;14298;50.900;4.648;2022-07-23T01:02:45;14.20;97.10
26687;DHT22;14298;50.900;4.648;2022-07-23T01:05:15;14.20;97.10
26687;DHT22;14298;50.900;4.648;2022-07-23T01:07:46;14.20;97.10
26687;DHT22;14298;50.900;4.648;2022-07-23T01:10:14;14.20;97.10
26687;DHT22;14298;50.900;4.648;2022-07-23T01:13:07;14.20;97.10
26687;DHT22;14298;50.900;4.648;2022-07-23T01:15:36;14.10;97.10
26687;DHT22;14298;50.900;4.648;2022-07-23T01:18:07;14.10;97.10
26687;DHT22;14298;50.900;4.648;2022-07-23T01:20:36;14.00;97.10
26687;DHT22;14298;50.900;4.648;2022-07-23T01:23:04;14.00;97.10
26687;DHT22;14298;50.900;4.648;2022-07-23T01:25:33;14.00;97.10
26687;DHT22;14298;50.900;4.648;2022-07-23T01:28:01;14.00;97.10
26687;DHT22;14298;50.900;4.648;2022-07-23T01:30:30;13.90;97.10
26687;DHT22;14298;50.900;4.648;2022-07-23T01:32:58;13.80;97.10
26687;DHT22;14298;50.900;4.648;2022-07-23T01:35:27;13.80;97.10
26687;DHT22;14298;50.900;4.648;2022-07-23T01:37:58;13.80;97.10
26687;DHT22;14298;50.900;4.648;2022-07-23T01:40:26;13.80;97.10
26687;DHT22;14298;50.900;4.648;2022-07-23T01:42:56;13.80;97.10
26687;DHT22;14298;50.900;4.648;2022-07-23T01:45:25;13.80;97.10
26687;DHT22;14298;50.900;4.648;2022-07-23T01:47:53;13.80;97.10
26687;DHT22;14298;50.900;4.648;2022-07-23T01:50:23;13.80;97.10
26687;DHT22;14298;50.900;4.648;2022-07-23T01:52:52;13.70;97.10
26687;DHT22;14298;50.900;4.648;2022-07-23T01:55:22;13.70;97.10
26687;DHT22;14298;50.900;4.648;2022-07-23T01:57:50;13.70;97.10
26687;DHT22;14298;50.900;4.648;2022-07-23T02:00:19;13.70;97.10
26687;DHT22;14298;50.900;4.648;2022-07-23T02:02:47;13.60;97.10
26687;DHT22;14298;50.900;4.648;2022-07-23T02:05:16;13.60;97.10
26687;DHT22;14298;50.900;4.648;2022-07-23T02:07:44;13.60;97.10
26687;DHT22;14298;50.900;4.648;2022-07-23T02:10:17;13.60;97.10
26687;DHT22;14298;50.900;4.648;2022-07-23T02:12:42;13.50;97.10
26687;DHT22;14298;50.900;4.648;2022-07-23T02:15:11;13.50;97.10
26687;DHT22;14298;50.900;4.648;2022-07-23T02:17:40;13.50;97.10
26687;DHT22;14298;50.900;4.648;2022-07-23T02:20:10;13.40;97.10
26687;DHT22;14298;50.900;4.648;2022-07-23T02:22:39;13.40;97.10
26687;DHT22;14298;50.900;4.648;2022-07-23T02:25:09;13.40;97.10
26687;DHT22;14298;50.900;4.648;2022-07-23T02:27:39;13.40;97.10
26687;DHT22;14298;50.900;4.648;2022-07-23T02:30:08;13.40;97.10
26687;DHT22;14298;50.900;4.648;2022-07-23T02:32:37;13.40;97.10
26687;DHT22;14298;50.900;4.648;2022-07-23T02:35:08;13.40;97.10
26687;DHT22;14298;50.900;4.648;2022-07-23T02:37:37;13.30;97.10
26687;DHT22;14298;50.900;4.648;2022-07-23T02:40:07;13.30;97.10
26687;DHT22;14298;50.900;4.648;2022-07-23T02:42:36;13.30;97.10
26687;DHT22;14298;50.900;4.648;2022-07-23T02:45:08;13.30;97.10
26687;DHT22;14298;50.900;4.648;2022-07-23T02:47:36;13.30;97.10
26687;DHT22;14298;50.900;4.648;2022-07-23T02:50:06;13.20;97.10
26687;DHT22;14298;50.900;4.648;2022-07-23T02:52:34;13.20;97.10
26687;DHT22;14298;50.900;4.648;2022-07-23T02:55:03;13.20;97.10
26687;DHT22;14298;50.900;4.648;2022-07-23T02:57:32;13.20;97.10
26687;DHT22;14298;50.900;4.648;2022-07-23T03:00:00;13.20;97.10
26687;DHT22;14298;50.900;4.648;2022-07-23T03:02:29;13.20;97.10
26687;DHT22;14298;50.900;4.648;2022-07-23T03:04:57;13.10;97.10
26687;DHT22;14298;50.900;4.648;2022-07-23T03:07:26;13.10;97.10
26687;DHT22;14298;50.900;4.648;2022-07-23T03:09:54;13.10;97.10
26687;DHT22;14298;50.900;4.648;2022-07-23T03:12:23;13.20;97.10
26687;DHT22;14298;50.900;4.648;2022-07-23T03:14:51;13.10;97.10
26687;DHT22;14298;50.900;4.648;2022-07-23T03:17:20;13.10;97.10
26687;DHT22;14298;50.900;4.648;2022-07-23T03:19:48;13.10;97.10
26687;DHT22;14298;50.900;4.648;2022-07-23T03:22:16;13.20;97.10
26687;DHT22;14298;50.900;4.648;2022-07-23T03:24:45;13.10;97.10
26687;DHT22;14298;50.900;4.648;2022-07-23T03:27:26;13.10;97.10
26687;DHT22;14298;50.900;4.648;2022-07-23T03:29:57;13.10;97.10
26687;DHT22;14298;50.900;4.648;2022-07-23T03:32:26;13.10;97.10
26687;DHT22;14298;50.900;4.648;2022-07-23T03:34:55;13.00;97.10
26687;DHT22;14298;50.900;4.648;2022-07-23T03:37:23;13.00;97.10
26687;DHT22;14298;50.900;4.648;2022-07-23T03:39:52;13.00;97.10
26687;DHT22;14298;50.900;4.648;2022-07-23T03:42:20;13.00;97.10
26687;DHT22;14298;50.900;4.648;2022-07-23T03:44:54;12.90;97.10
26687;DHT22;14298;50.900;4.648;2022-07-23T03:47:18;12.90;97.10
26687;DHT22;14298;50.900;4.648;2022-07-23T03:49:49;12.90;97.10
26687;DHT22;14298;50.900;4.648;2022-07-23T03:52:17;12.90;97.10
26687;DHT22;14298;50.900;4.648;2022-07-23T03:54:46;12.90;97.10
26687;DHT22;14298;50.900;4.648;2022-07-23T03:57:14;12.90;97.10
26687;DHT22;14298;50.900;4.648;2022-07-23T03:59:44;12.90;97.10
26687;DHT22;14298;50.900;4.648;2022-07-23T04:02:12;12.90;97.10
26687;DHT22;14298;50.900;4.648;2022-07-23T04:04:42;12.80;97.10
26687;DHT22;14298;50.900;4.648;2022-07-23T04:07:13;12.80;97.10
26687;DHT22;14298;50.900;4.648;2022-07-23T04:09:41;12.90;97.10
26687;DHT22;14298;50.900;4.648;2022-07-23T04:12:10;12.90;97.10
26687;DHT22;14298;50.900;4.648;2022-07-23T04:14:38;12.90;97.10
26687;DHT22;14298;50.900;4.648;2022-07-23T04:17:07;13.00;97.10
26687;DHT22;14298;50.900;4.648;2022-07-23T04:19:35;13.00;97.10
26687;DHT22;14298;50.900;4.648;2022-07-23T04:22:06;13.00;97.10
26687;DHT22;14298;50.900;4.648;2022-07-23T04:24:35;13.00;97.10
26687;DHT22;14298;50.900;4.648;2022-07-23T04:27:04;13.10;97.10
26687;DHT22;14298;50.900;4.648;2022-07-23T04:29:33;13.10;97.10
26687;DHT22;14298;50.900;4.648;2022-07-23T04:32:01;13.10;97.10
26687;DHT22;14298;50.900;4.648;2022-07-23T04:34:30;13.10;97.10
26687;DHT22;14298;50.900;4.648;2022-07-23T04:36:58;13.20;97.10
26687;DHT22;14298;50.900;4.648;2022-07-23T04:39:26;13.20;97.10
26687;DHT22;14298;50.900;4.648;2022-07-23T04:41:55;13.20;97.10
26687;DHT22;14298;50.900;4.648;2022-07-23T04:44:25;13.20;97.10
26687;DHT22;14298;50.900;4.648;2022-07-23T04:46:53;13.30;97.10
26687;DHT22;14298;50.900;4.648;2022-07-23T04:49:22;13.40;97.10
26687;DHT22;14298;50.900;4.648;2022-07-23T04:51:50;13.40;97.10
26687;DHT22;14298;50.900;4.648;2022-07-23T04:54:19;13.50;97.10
26687;DHT22;14298;50.900;4.648;2022-07-23T04:56:47;13.50;97.10
26687;DHT22;14298;50.900;4.648;2022-07-23T04:59:15;13.60;97.10
26687;DHT22;14298;50.900;4.648;2022-07-23T05:01:44;13.70;97.10
26687;DHT22;14298;50.900;4.648;2022-07-23T05:04:12;13.80;97.10
26687;DHT22;14298;50.900;4.648;2022-07-23T05:06:40;13.90;97.10
26687;DHT22;14298;50.900;4.648;2022-07-23T05:09:09;14.00;97.10
26687;DHT22;14298;50.900;4.648;2022-07-23T05:11:37;14.10;97.10
26687;DHT22;14298;50.900;4.648;2022-07-23T05:14:05;14.20;97.10
26687;DHT22;14298;50.900;4.648;2022-07-23T05:16:33;14.30;97.10
26687;DHT22;14298;50.900;4.648;2022-07-23T05:19:02;14.40;97.10
26687;DHT22;14298;50.900;4.648;2022-07-23T05:21:30;14.60;97.10
26687;DHT22;14298;50.900;4.648;2022-07-23T05:23:59;14.80;97.10
26687;DHT22;14298;50.900;4.648;2022-07-23T05:26:28;15.00;97.10
26687;DHT22;14298;50.900;4.648;2022-07-23T05:28:56;15.10;97.10
26687;DHT22;14298;50.900;4.648;2022-07-23T05:31:24;15.30;97.10
26687;DHT22;14298;50.900;4.648;2022-07-23T05:33:53;15.40;97.10
26687;DHT22;14298;50.900;4.648;2022-07-23T05:36:21;15.60;97.10
26687;DHT22;14298;50.900;4.648;2022-07-23T05:38:49;15.70;97.10
26687;DHT22;14298;50.900;4.648;2022-07-23T05:41:18;15.80;97.10
26687;DHT22;14298;50.900;4.648;2022-07-23T05:43:46;16.00;97.10
26687;DHT22;14298;50.900;4.648;2022-07-23T05:46:15;16.20;97.10
26687;DHT22;14298;50.900;4.648;2022-07-23T05:48:43;16.20;97.10
26687;DHT22;14298;50.900;4.648;2022-07-23T05:51:13;16.30;97.10
26687;DHT22;14298;50.900;4.648;2022-07-23T05:53:42;16.60;97.10
26687;DHT22;14298;50.900;4.648;2022-07-23T05:56:10;16.80;97.10
26687;DHT22;14298;50.900;4.648;2022-07-23T05:58:38;16.80;97.10
26687;DHT22;14298;50.900;4.648;2022-07-23T06:01:07;16.70;97.10
26687;DHT22;14298;50.900;4.648;2022-07-23T06:03:35;16.70;97.10
26687;DHT22;14298;50.900;4.648;2022-07-23T06:06:04;17.00;97.10
26687;DHT22;14298;50.900;4.648;2022-07-23T06:08:33;17.00;97.10
26687;DHT22;14298;50.900;4.648;2022-07-23T06:11:02;17.00;97.10
26687;DHT22;14298;50.900;4.648;2022-07-23T06:13:30;17.40;97.10
26687;DHT22;14298;50.900;4.648;2022-07-23T06:15:58;17.70;97.10
26687;DHT22;14298;50.900;4.648;2022-07-23T06:18:27;17.90;97.10
26687;DHT22;14298;50.900;4.648;2022-07-23T06:20:55;17.80;97.10
26687;DHT22;14298;50.900;4.648;2022-07-23T06:23:24;17.70;97.10
26687;DHT22;14298;50.900;4.648;2022-07-23T06:25:52;17.90;97.10
26687;DHT22;14298;50.900;4.648;2022-07-23T06:28:20;18.00;97.10
26687;DHT22;14298;50.900;4.648;2022-07-23T06:30:48;18.30;97.10
26687;DHT22;14298;50.900;4.648;2022-07-23T06:33:17;18.60;97.10
26687;DHT22;14298;50.900;4.648;2022-07-23T06:35:45;18.80;97.10
26687;DHT22;14298;50.900;4.648;2022-07-23T06:38:13;18.80;97.10
26687;DHT22;14298;50.900;4.648;2022-07-23T06:40:42;18.90;97.10
26687;DHT22;14298;50.900;4.648;2022-07-23T06:43:11;19.30;97.10
26687;DHT22;14298;50.900;4.648;2022-07-23T06:45:39;19.90;97.10
26687;DHT22;14298;50.900;4.648;2022-07-23T06:48:07;19.80;97.10
26687;DHT22;14298;50.900;4.648;2022-07-23T06:50:36;20.00;97.10
26687;DHT22;14298;50.900;4.648;2022-07-23T06:53:04;20.30;97.10
26687;DHT22;14298;50.900;4.648;2022-07-23T06:55:32;20.60;97.10
26687;DHT22;14298;50.900;4.648;2022-07-23T06:58:02;20.90;97.10
26687;DHT22;14298;50.900;4.648;2022-07-23T07:00:31;20.90;97.10
26687;DHT22;14298;50.900;4.648;2022-07-23T07:02:59;20.50;97.10
26687;DHT22;14298;50.900;4.648;2022-07-23T07:05:28;20.30;97.10
26687;DHT22;14298;50.900;4.648;2022-07-23T07:07:56;20.90;97.10
26687;DHT22;14298;50.900;4.648;2022-07-23T07:10:24;20.80;97.10
26687;DHT22;14298;50.900;4.648;2022-07-23T07:12:53;21.20;97.10
26687;DHT22;14298;50.900;4.648;2022-07-23T07:15:21;21.00;97.10
26687;DHT22;14298;50.900;4.648;2022-07-23T07:17:49;21.20;97.10
26687;DHT22;14298;50.900;4.648;2022-07-23T07:20:18;21.60;97.10
26687;DHT22;14298;50.900;4.648;2022-07-23T07:22:46;21.60;97.10
26687;DHT22;14298;50.900;4.648;2022-07-23T07:25:14;21.00;97.10
26687;DHT22;14298;50.900;4.648;2022-07-23T07:27:43;21.60;97.10
26687;DHT22;14298;50.900;4.648;2022-07-23T07:30:12;22.40;97.10
26687;DHT22;14298;50.900;4.648;2022-07-23T07:32:42;22.80;97.10
26687;DHT22;14298;50.900;4.648;2022-07-23T07:35:10;22.10;97.10
26687;DHT22;14298;50.900;4.648;2022-07-23T07:37:39;22.00;97.10
26687;DHT22;14298;50.900;4.648;2022-07-23T07:40:08;22.30;97.10
26687;DHT22;14298;50.900;4.648;2022-07-23T07:42:50;23.00;97.10
26687;DHT22;14298;50.900;4.648;2022-07-23T07:45:16;23.60;97.10
26687;DHT22;14298;50.900;4.648;2022-07-23T07:47:45;24.00;97.10
26687;DHT22;14298;50.900;4.648;2022-07-23T07:50:13;24.50;97.10
26687;DHT22;14298;50.900;4.648;2022-07-23T07:52:42;23.90;97.10
26687;DHT22;14298;50.900;4.648;2022-07-23T07:55:11;24.20;97.10
26687;DHT22;14298;50.900;4.648;2022-07-23T07:57:41;24.90;97.10
26687;DHT22;14298;50.900;4.648;2022-07-23T08:00:10;24.90;97.10
26687;DHT22;14298;50.900;4.648;2022-07-23T08:02:47;24.50;97.10
26687;DHT22;14298;50.900;4.648;2022-07-23T08:05:26;24.90;97.10
26687;DHT22;14298;50.900;4.648;2022-07-23T08:07:50;25.00;97.10
26687;DHT22;14298;50.900;4.648;2022-07-23T08:10:19;24.30;97.10
26687;DHT22;14298;50.900;4.648;2022-07-23T08:12:53;24.10;97.10
26687;DHT22;14298;50.900;4.648;2022-07-23T08:15:25;23.90;97.10
26687;DHT22;14298;50.900;4.648;2022-07-23T08:17:53;24.60;97.10
26687;DHT22;14298;50.900;4.648;2022-07-23T08:20:23;25.00;97.10
26687;DHT22;14298;50.900;4.648;2022-07-23T08:22:54;24.80;97.10
26687;DHT22;14298;50.900;4.648;2022-07-23T08:25:25;24.60;97.10
26687;DHT22;14298;50.900;4.648;2022-07-23T08:27:54;24.30;97.10
26687;DHT22;14298;50.900;4.648;2022-07-23T08:30:23;23.90;97.10
26687;DHT22;14298;50.900;4.648;2022-07-23T08:32:56;23.90;97.10
26687;DHT22;14298;50.900;4.648;2022-07-23T08:35:32;24.00;97.10
26687;DHT22;14298;50.900;4.648;2022-07-23T08:37:57;24.10;97.10
26687;DHT22;14298;50.900;4.648;2022-07-23T08:40:27;24.30;97.10
26687;DHT22;14298;50.900;4.648;2022-07-23T08:42:57;25.00;97.10
26687;DHT22;14298;50.900;4.648;2022-07-23T08:45:26;25.80;97.10
26687;DHT22;14298;50.900;4.648;2022-07-23T08:47:57;26.10;97.10
26687;DHT22;14298;50.900;4.648;2022-07-23T08:50:26;26.30;97.10
26687;DHT22;14298;50.900;4.648;2022-07-23T08:52:55;26.60;97.10
26687;DHT22;14298;50.900;4.648;2022-07-23T08:55:25;27.40;97.10
26687;DHT22;14298;50.900;4.648;2022-07-23T08:57:53;27.40;97.10
26687;DHT22;14298;50.900;4.648;2022-07-23T09:00:22;26.90;97.10
26687;DHT22;14298;50.900;4.648;2022-07-23T09:02:51;26.80;97.10
26687;DHT22;14298;50.900;4.648;2022-07-23T09:05:20;27.70;97.10
26687;DHT22;14298;50.900;4.648;2022-07-23T09:13:28;30.80;97.10
26687;DHT22;14298;50.900;4.648;2022-07-23T09:16:00;31.40;97.10
26687;DHT22;14298;50.900;4.648;2022-07-23T09:18:30;31.50;97.10
26687;DHT22;14298;50.900;4.648;2022-07-23T09:23:48;33.90;97.10
26687;DHT22;14298;50.900;4.648;2022-07-23T09:29:11;31.50;97.10
26687;DHT22;14298;50.900;4.648;2022-07-23T09:31:55;30.60;97.10
26687;DHT22;14298;50.900;4.648;2022-07-23T09:34:28;31.80;97.10
26687;DHT22;14298;50.900;4.648;2022-07-23T09:37:18;30.30;97.10
26687;DHT22;14298;50.900;4.648;2022-07-23T09:39:48;30.70;97.10
26687;DHT22;14298;50.900;4.648;2022-07-23T09:42:26;30.40;97.10
26687;DHT22;14298;50.900;4.648;2022-07-23T09:44:56;29.10;97.10
26687;DHT22;14298;50.900;4.648;2022-07-23T09:47:26;29.10;97.10
26687;DHT22;14298;50.900;4.648;2022-07-23T09:50:03;28.90;97.10
26687;DHT22;14298;50.900;4.648;2022-07-23T09:52:44;28.10;97.10
26687;DHT22;14298;50.900;4.648;2022-07-23T09:55:16;27.90;97.10
26687;DHT22;14298;50.900;4.648;2022-07-23T09:57:46;28.50;97.10
26687;DHT22;14298;50.900;4.648;2022-07-23T10:00:19;29.70;97.10
26687;DHT22;14298;50.900;4.648;2022-07-23T10:02:48;28.50;97.10
26687;DHT22;14298;50.900;4.648;2022-07-23T10:05:18;28.90;97.10
26687;DHT22;14298;50.900;4.648;2022-07-23T10:07:47;29.40;97.10
26687;DHT22;14298;50.900;4.648;2022-07-23T10:10:16;28.60;97.10
26687;DHT22;14298;50.900;4.648;2022-07-23T10:12:46;28.00;97.10
26687;DHT22;14298;50.900;4.648;2022-07-23T10:15:16;27.90;97.10
26687;DHT22;14298;50.900;4.648;2022-07-23T10:17:44;27.90;97.10
26687;DHT22;14298;50.900;4.648;2022-07-23T10:20:13;27.80;97.10
26687;DHT22;14298;50.900;4.648;2022-07-23T10:22:48;27.40;97.10
26687;DHT22;14298;50.900;4.648;2022-07-23T10:25:26;27.80;97.10
26687;DHT22;14298;50.900;4.648;2022-07-23T10:28:06;28.00;97.10
26687;DHT22;14298;50.900;4.648;2022-07-23T10:33:30;28.30;97.10
26687;DHT22;14298;50.900;4.648;2022-07-23T10:39:06;29.30;97.10
26687;DHT22;14298;50.900;4.648;2022-07-23T10:41:37;29.60;97.10
26687;DHT22;14298;50.900;4.648;2022-07-23T10:44:14;30.00;97.10
26687;DHT22;14298;50.900;4.648;2022-07-23T10:46:59;29.80;97.10
26687;DHT22;14298;50.900;4.648;2022-07-23T10:49:35;29.00;97.10
26687;DHT22;14298;50.900;4.648;2022-07-23T10:52:23;28.70;97.10
26687;DHT22;14298;50.900;4.648;2022-07-23T10:55:38;27.20;97.10
26687;DHT22;14298;50.900;4.648;2022-07-23T10:57:27;26.30;97.10
26687;DHT22;14298;50.900;4.648;2022-07-23T11:02:41;25.60;97.10
26687;DHT22;14298;50.900;4.648;2022-07-23T11:05:15;25.60;97.10
26687;DHT22;14298;50.900;4.648;2022-07-23T11:10:41;25.80;97.10
26687;DHT22;14298;50.900;4.648;2022-07-23T11:13:48;24.90;97.10
26687;DHT22;14298;50.900;4.648;2022-07-23T11:16:14;24.80;97.10
26687;DHT22;14298;50.900;4.648;2022-07-23T11:24:00;26.20;97.10
26687;DHT22;14298;50.900;4.648;2022-07-23T11:32:06;24.90;97.10
26687;DHT22;14298;50.900;4.648;2022-07-23T11:34:39;24.70;97.10
26687;DHT22;14298;50.900;4.648;2022-07-23T11:37:26;24.90;97.10
26687;DHT22;14298;50.900;4.648;2022-07-23T11:39:44;25.10;97.10
26687;DHT22;14298;50.900;4.648;2022-07-23T11:42:16;24.80;97.10
26687;DHT22;14298;50.900;4.648;2022-07-23T11:44:46;24.60;97.10
26687;DHT22;14298;50.900;4.648;2022-07-23T11:47:15;24.60;97.10
26687;DHT22;14298;50.900;4.648;2022-07-23T11:49:56;24.60;97.10
26687;DHT22;14298;50.900;4.648;2022-07-23T11:52:25;24.60;97.10
26687;DHT22;14298;50.900;4.648;2022-07-23T11:55:00;24.70;97.10
26687;DHT22;14298;50.900;4.648;2022-07-23T11:57:33;24.60;97.10
26687;DHT22;14298;50.900;4.648;2022-07-23T12:00:08;24.40;97.10
26687;DHT22;14298;50.900;4.648;2022-07-23T12:02:34;24.40;97.10
26687;DHT22;14298;50.900;4.648;2022-07-23T12:05:02;24.70;97.10
26687;DHT22;14298;50.900;4.648;2022-07-23T12:07:39;24.80;97.10
26687;DHT22;14298;50.900;4.648;2022-07-23T12:10:13;24.60;97.10
26687;DHT22;14298;50.900;4.648;2022-07-23T12:12:49;24.70;97.10
26687;DHT22;14298;50.900;4.648;2022-07-23T12:15:20;25.00;97.10
26687;DHT22;14298;50.900;4.648;2022-07-23T12:17:50;25.10;97.10
26687;DHT22;14298;50.900;4.648;2022-07-23T12:20:22;25.30;97.10
26687;DHT22;14298;50.900;4.648;2022-07-23T12:22:55;25.40;97.10
26687;DHT22;14298;50.900;4.648;2022-07-23T12:25:24;25.40;97.10
26687;DHT22;14298;50.900;4.648;2022-07-23T12:28:07;25.10;97.10
26687;DHT22;14298;50.900;4.648;2022-07-23T12:30:45;25.20;97.10
26687;DHT22;14298;50.900;4.648;2022-07-23T12:33:33;25.20;97.10
26687;DHT22;14298;50.900;4.648;2022-07-23T12:36:04;25.20;97.10
26687;DHT22;14298;50.900;4.648;2022-07-23T12:38:46;24.90;97.10
26687;DHT22;14298;50.900;4.648;2022-07-23T12:41:14;25.00;97.10
26687;DHT22;14298;50.900;4.648;2022-07-23T12:43:44;25.30;97.10
26687;DHT22;14298;50.900;4.648;2022-07-23T12:46:20;25.40;97.10
26687;DHT22;14298;50.900;4.648;2022-07-23T12:48:53;25.30;97.10
26687;DHT22;14298;50.900;4.648;2022-07-23T12:51:26;25.60;97.10
26687;DHT22;14298;50.900;4.648;2022-07-23T12:54:05;25.80;97.10
26687;DHT22;14298;50.900;4.648;2022-07-23T12:56:36;25.60;97.10
26687;DHT22;14298;50.900;4.648;2022-07-23T12:59:07;25.50;97.10
26687;DHT22;14298;50.900;4.648;2022-07-23T13:01:43;25.60;97.10
26687;DHT22;14298;50.900;4.648;2022-07-23T13:04:17;25.90;97.10
26687;DHT22;14298;50.900;4.648;2022-07-23T13:06:51;26.20;97.10
26687;DHT22;14298;50.900;4.648;2022-07-23T13:09:24;26.50;97.10
26687;DHT22;14298;50.900;4.648;2022-07-23T13:11:54;26.20;97.10
26687;DHT22;14298;50.900;4.648;2022-07-23T13:14:24;25.90;97.10
26687;DHT22;14298;50.900;4.648;2022-07-23T13:16:53;25.80;97.10
26687;DHT22;14298;50.900;4.648;2022-07-23T13:19:22;26.00;97.10
26687;DHT22;14298;50.900;4.648;2022-07-23T13:21:50;26.10;97.10
26687;DHT22;14298;50.900;4.648;2022-07-23T13:24:18;26.00;97.10
26687;DHT22;14298;50.900;4.648;2022-07-23T13:26:46;25.90;97.10
26687;DHT22;14298;50.900;4.648;2022-07-23T13:29:17;25.90;97.10
26687;DHT22;14298;50.900;4.648;2022-07-23T13:31:45;25.90;97.10
26687;DHT22;14298;50.900;4.648;2022-07-23T13:34:13;25.90;97.10
26687;DHT22;14298;50.900;4.648;2022-07-23T13:36:41;25.70;97.10
26687;DHT22;14298;50.900;4.648;2022-07-23T13:39:10;25.80;97.10
26687;DHT22;14298;50.900;4.648;2022-07-23T13:41:39;26.00;97.10
26687;DHT22;14298;50.900;4.648;2022-07-23T13:44:07;26.20;97.10
26687;DHT22;14298;50.900;4.648;2022-07-23T13:46:36;26.20;97.10
26687;DHT22;14298;50.900;4.648;2022-07-23T13:49:04;25.90;97.10
26687;DHT22;14298;50.900;4.648;2022-07-23T13:51:32;25.80;97.10
26687;DHT22;14298;50.900;4.648;2022-07-23T13:54:01;25.80;97.10
26687;DHT22;14298;50.900;4.648;2022-07-23T13:56:30;25.90;97.10
26687;DHT22;14298;50.900;4.648;2022-07-23T13:58:58;25.80;97.10
26687;DHT22;14298;50.900;4.648;2022-07-23T14:01:26;25.70;97.10
26687;DHT22;14298;50.900;4.648;2022-07-23T14:03:55;25.70;97.10
26687;DHT22;14298;50.900;4.648;2022-07-23T14:06:23;25.90;97.10
26687;DHT22;14298;50.900;4.648;2022-07-23T14:08:52;25.90;97.10
26687;DHT22;14298;50.900;4.648;2022-07-23T14:11:20;26.00;97.10
26687;DHT22;14298;50.900;4.648;2022-07-23T14:13:48;26.20;97.10
26687;DHT22;14298;50.900;4.648;2022-07-23T14:16:17;26.40;97.10
26687;DHT22;14298;50.900;4.648;2022-07-23T14:18:45;26.40;97.10
26687;DHT22;14298;50.900;4.648;2022-07-23T14:21:14;26.10;97.10
26687;DHT22;14298;50.900;4.648;2022-07-23T14:23:42;26.00;97.10
26687;DHT22;14298;50.900;4.648;2022-07-23T14:26:10;26.10;97.10
26687;DHT22;14298;50.900;4.648;2022-07-23T14:28:39;26.30;97.10
26687;DHT22;14298;50.900;4.648;2022-07-23T14:31:07;26.10;97.10
26687;DHT22;14298;50.900;4.648;2022-07-23T14:33:35;26.00;97.10
26687;DHT22;14298;50.900;4.648;2022-07-23T14:36:05;26.10;97.10
26687;DHT22;14298;50.900;4.648;2022-07-23T14:38:33;26.40;97.10
26687;DHT22;14298;50.900;4.648;2022-07-23T14:41:02;26.40;97.10
26687;DHT22;14298;50.900;4.648;2022-07-23T14:43:32;26.20;97.10
26687;DHT22;14298;50.900;4.648;2022-07-23T14:46:01;26.20;97.10
26687;DHT22;14298;50.900;4.648;2022-07-23T14:48:29;26.20;97.10
26687;DHT22;14298;50.900;4.648;2022-07-23T14:50:58;26.20;97.10
26687;DHT22;14298;50.900;4.648;2022-07-23T14:53:26;26.30;97.10
26687;DHT22;14298;50.900;4.648;2022-07-23T14:55:55;26.40;97.10
26687;DHT22;14298;50.900;4.648;2022-07-23T14:58:25;26.50;97.10
26687;DHT22;14298;50.900;4.648;2022-07-23T15:00:54;26.70;97.10
26687;DHT22;14298;50.900;4.648;2022-07-23T15:03:22;26.70;97.10
26687;DHT22;14298;50.900;4.648;2022-07-23T15:05:51;26.80;97.10
26687;DHT22;14298;50.900;4.648;2022-07-23T15:08:20;26.80;97.10
26687;DHT22;14298;50.900;4.648;2022-07-23T15:10:48;26.80;97.10
26687;DHT22;14298;50.900;4.648;2022-07-23T15:13:17;26.80;97.10
26687;DHT22;14298;50.900;4.648;2022-07-23T15:15:45;26.80;97.10
26687;DHT22;14298;50.900;4.648;2022-07-23T15:18:13;26.90;97.10
26687;DHT22;14298;50.900;4.648;2022-07-23T15:20:42;27.00;97.10
26687;DHT22;14298;50.900;4.648;2022-07-23T15:23:10;27.00;97.10
26687;DHT22;14298;50.900;4.648;2022-07-23T15:25:39;26.90;97.10
26687;DHT22;14298;50.900;4.648;2022-07-23T15:28:07;26.90;97.10
26687;DHT22;14298;50.900;4.648;2022-07-23T15:30:36;27.10;97.10
26687;DHT22;14298;50.900;4.648;2022-07-23T15:33:05;27.20;97.10
26687;DHT22;14298;50.900;4.648;2022-07-23T15:35:33;27.20;97.10
26687;DHT22;14298;50.900;4.648;2022-07-23T15:38:01;27.00;97.10
26687;DHT22;14298;50.900;4.648;2022-07-23T15:40:30;26.90;97.10
26687;DHT22;14298;50.900;4.648;2022-07-23T15:42:58;26.60;97.10
26687;DHT22;14298;50.900;4.648;2022-07-23T15:45:26;26.50;97.10
26687;DHT22;14298;50.900;4.648;2022-07-23T15:47:55;26.60;97.10
26687;DHT22;14298;50.900;4.648;2022-07-23T15:50:23;26.80;97.10
26687;DHT22;14298;50.900;4.648;2022-07-23T15:52:51;26.90;97.10
26687;DHT22;14298;50.900;4.648;2022-07-23T15:55:20;27.00;97.10
26687;DHT22;14298;50.900;4.648;2022-07-23T15:57:49;27.20;97.10
26687;DHT22;14298;50.900;4.648;2022-07-23T16:00:18;26.90;97.10
26687;DHT22;14298;50.900;4.648;2022-07-23T16:02:46;27.00;97.10
26687;DHT22;14298;50.900;4.648;2022-07-23T16:05:14;26.90;97.10
26687;DHT22;14298;50.900;4.648;2022-07-23T16:07:43;26.90;97.10
26687;DHT22;14298;50.900;4.648;2022-07-23T16:10:11;26.70;97.10
26687;DHT22;14298;50.900;4.648;2022-07-23T16:12:40;26.80;97.10
26687;DHT22;14298;50.900;4.648;2022-07-23T16:15:09;26.90;97.10
26687;DHT22;14298;50.900;4.648;2022-07-23T16:17:37;26.80;97.10
26687;DHT22;14298;50.900;4.648;2022-07-23T16:20:06;26.70;97.10